Time;durP1;ratioP1;P1;durP2;ratioP2;P2;SDS_P1;SDS_P2;PMS_P1;PMS_P2;Temp;Humidity;BMP_temperature;BMP_pressure;BME280_temperature;BME280_humidity;BME280_pressure;Samples;Min_cycle;Max_cycle;Signal;HPM_P1;HPM_P2
2022/10/17 00:01:41;;;;;;;1.60;1.50;;;;;;;;;;5009160;28;20208;-68
2022/10/17 00:04:08;;;;;;;2.78;1.20;;;;;;;;;;5009022;28;20229;-69
2022/10/17 00:06:36;;;;;;;1.27;1.27;;;;;;;;;;5009006;28;20231;-68
2022/10/17 00:09:03;;;;;;;4.53;1.20;;;;;;;;;;5008944;28;20942;-69
2022/10/17 00:11:30;;;;;;;1.00;1.00;;;;;;;;;;5008972;28;20211;-69
2022/10/17 00:13:57;;;;;;;4.20;1.20;;;;;;;;;;5006960;28;20672;-69
2022/10/17 00:16:28;;;;;;;1.48;1.33;;;;;;;;;;5007675;28;20212;-69
2022/10/17 00:18:56;;;;;;;1.10;1.10;;;;;;;;;;5008372;28;20201;-69
2022/10/17 00:21:24;;;;;;;5.88;2.95;;;;;;;;;;5008478;28;20213;-69
2022/10/17 00:23:51;;;;;;;4.65;2.72;;;;;;;;;;5007786;28;20686;-69
2022/10/17 00:26:19;;;;;;;4.07;3.57;;;;;;;;;;5008101;28;20217;-69
2022/10/17 00:28:46;;;;;;;1.90;1.80;;;;;;;;;;5000330;28;20544;-69
2022/10/17 00:31:13;;;;;;;1.48;1.33;;;;;;;;;;5008450;28;20330;-69
2022/10/17 00:33:42;;;;;;;1.45;1.23;;;;;;;;;;5008047;28;20205;-69
2022/10/17 00:36:12;;;;;;;1.10;0.98;;;;;;;;;;5008171;28;20201;-69
2022/10/17 00:38:40;;;;;;;1.10;1.10;;;;;;;;;;5007853;28;20205;-69
2022/10/17 00:41:07;;;;;;;6.00;1.70;;;;;;;;;;5007729;28;20219;-69
2022/10/17 00:43:49;;;;;;;1.77;1.10;;;;;;;;;;5008786;28;20212;-69
2022/10/17 00:46:16;;;;;;;1.75;1.40;;;;;;;;;;5008097;28;20232;-69
2022/10/17 00:48:43;;;;;;;1.10;1.10;;;;;;;;;;5007792;28;20212;-69
2022/10/17 00:51:12;;;;;;;1.30;1.20;;;;;;;;;;5007673;28;20732;-69
2022/10/17 00:53:40;;;;;;;1.10;1.00;;;;;;;;;;5007766;28;20212;-69
2022/10/17 00:56:07;;;;;;;1.27;1.17;;;;;;;;;;5007787;28;20209;-69
2022/10/17 00:58:34;;;;;;;2.20;0.93;;;;;;;;;;5007414;28;20204;-69
2022/10/17 01:01:02;;;;;;;0.93;0.93;;;;;;;;;;5006667;28;20213;-69
2022/10/17 01:03:29;;;;;;;1.48;0.93;;;;;;;;;;5006078;28;20593;-69
2022/10/17 01:05:57;;;;;;;2.20;0.93;;;;;;;;;;5006535;28;20229;-69
2022/10/17 01:08:25;;;;;;;2.10;1.30;;;;;;;;;;5006065;28;20201;-69
2022/10/17 01:10:57;;;;;;;1.20;0.87;;;;;;;;;;5006081;28;20216;-69
2022/10/17 01:13:27;;;;;;;3.93;1.00;;;;;;;;;;5002799;28;20672;-69
2022/10/17 01:16:00;;;;;;;0.80;0.80;;;;;;;;;;5006349;28;20208;-69
2022/10/17 01:18:32;;;;;;;0.80;0.80;;;;;;;;;;5006634;28;20299;-69
2022/10/17 01:21:02;;;;;;;2.20;0.87;;;;;;;;;;5004567;28;20212;-68
2022/10/17 01:23:56;;;;;;;0.90;0.90;;;;;;;;;;5006630;28;20817;-69
2022/10/17 01:26:26;;;;;;;3.53;1.00;;;;;;;;;;5006484;28;20604;-68
2022/10/17 01:29:01;;;;;;;1.20;1.20;;;;;;;;;;5005750;28;20205;-69
2022/10/17 01:31:33;;;;;;;1.97;1.00;;;;;;;;;;5002033;28;20208;-68
2022/10/17 01:34:03;;;;;;;2.73;1.57;;;;;;;;;;5010211;28;20215;-69
2022/10/17 01:36:37;;;;;;;4.17;1.60;;;;;;;;;;5010062;28;20197;-69
2022/10/17 01:39:11;;;;;;;2.90;1.83;;;;;;;;;;5010338;28;20208;-69
2022/10/17 01:41:40;;;;;;;9.67;3.33;;;;;;;;;;5010613;28;20213;-68
2022/10/17 01:44:10;;;;;;;4.23;2.30;;;;;;;;;;5010417;28;20201;-69
2022/10/17 01:46:40;;;;;;;2.60;2.33;;;;;;;;;;5010295;28;20229;-69
2022/10/17 01:49:09;;;;;;;1.20;1.20;;;;;;;;;;5009900;28;20215;-69
2022/10/17 01:51:38;;;;;;;2.30;1.40;;;;;;;;;;5007856;28;20703;-69
2022/10/17 01:54:07;;;;;;;2.00;1.37;;;;;;;;;;5009524;28;20306;-69
2022/10/17 01:56:35;;;;;;;1.50;1.40;;;;;;;;;;5009620;28;20212;-69
2022/10/17 01:59:05;;;;;;;1.20;1.20;;;;;;;;;;5010237;28;20212;-69
2022/10/17 02:01:32;;;;;;;13.97;6.27;;;;;;;;;;5009772;28;20216;-68
2022/10/17 02:04:02;;;;;;;7.33;3.73;;;;;;;;;;5008001;28;20866;-68
2022/10/17 02:06:29;;;;;;;3.87;2.00;;;;;;;;;;5005534;28;20231;-68
2022/10/17 02:08:56;;;;;;;2.60;1.90;;;;;;;;;;5007959;28;20216;-68
2022/10/17 02:11:24;;;;;;;6.50;1.80;;;;;;;;;;5009043;28;20265;-69
2022/10/17 02:13:58;;;;;;;3.07;2.23;;;;;;;;;;5008792;28;20699;-68
2022/10/17 02:16:29;;;;;;;4.10;2.20;;;;;;;;;;5007232;28;20204;-68
2022/10/17 02:19:08;;;;;;;1.83;1.73;;;;;;;;;;5010866;28;20212;-68
2022/10/17 02:21:40;;;;;;;1.70;1.20;;;;;;;;;;5010751;28;20228;-68
2022/10/17 02:24:10;;;;;;;2.17;1.97;;;;;;;;;;5010617;28;20591;-69
2022/10/17 02:26:41;;;;;;;5.97;2.47;;;;;;;;;;5009990;28;20232;-68
2022/10/17 02:29:10;;;;;;;3.10;2.03;;;;;;;;;;4999683;28;20204;-68
2022/10/17 02:31:39;;;;;;;1.70;1.60;;;;;;;;;;5009987;28;20209;-68
2022/10/17 02:34:09;;;;;;;1.60;1.50;;;;;;;;;;5010255;28;20208;-68
2022/10/17 02:36:38;;;;;;;1.73;1.63;;;;;;;;;;5009703;28;20826;-68
2022/10/17 02:39:07;;;;;;;1.83;1.73;;;;;;;;;;5009783;28;20671;-68
2022/10/17 02:41:34;;;;;;;1.87;1.77;;;;;;;;;;5006975;28;20578;-68
2022/10/17 02:44:03;;;;;;;4.40;2.10;;;;;;;;;;5007563;28;20648;-68
2022/10/17 02:46:31;;;;;;;4.97;2.10;;;;;;;;;;5006819;28;20221;-68
2022/10/17 02:49:00;;;;;;;3.30;2.20;;;;;;;;;;5007257;28;20616;-68
2022/10/17 02:51:30;;;;;;;1.50;1.40;;;;;;;;;;5007479;28;20679;-68
2022/10/17 02:54:01;;;;;;;1.30;1.27;;;;;;;;;;5006581;28;20209;-68
2022/10/17 02:56:31;;;;;;;3.10;1.23;;;;;;;;;;5008014;28;20205;-68
2022/10/17 02:58:59;;;;;;;3.47;1.23;;;;;;;;;;5007466;28;20215;-68
2022/10/17 03:01:26;;;;;;;0.97;0.97;;;;;;;;;;5009012;28;20216;-68
2022/10/17 03:04:05;;;;;;;6.07;1.03;;;;;;;;;;5008319;28;20781;-68
2022/10/17 03:06:33;;;;;;;1.23;0.83;;;;;;;;;;5008539;28;20240;-68
2022/10/17 03:09:00;;;;;;;4.93;0.87;;;;;;;;;;5008500;28;20217;-68
2022/10/17 03:11:27;;;;;;;2.50;0.80;;;;;;;;;;5007522;28;20205;-68
2022/10/17 03:13:54;;;;;;;0.87;0.87;;;;;;;;;;5006625;28;20200;-68
2022/10/17 03:16:21;;;;;;;0.83;0.83;;;;;;;;;;5007923;28;20587;-68
2022/10/17 03:18:48;;;;;;;0.90;0.90;;;;;;;;;;5006899;28;20201;-67
2022/10/17 03:21:15;;;;;;;0.90;0.90;;;;;;;;;;5006967;28;20213;-68
2022/10/17 03:23:44;;;;;;;0.90;0.90;;;;;;;;;;5006646;28;20216;-68
2022/10/17 03:26:11;;;;;;;0.77;0.77;;;;;;;;;;5006001;28;20229;-68
2022/10/17 03:28:38;;;;;;;0.87;0.87;;;;;;;;;;5006236;28;20265;-68
2022/10/17 03:31:08;;;;;;;1.40;1.10;;;;;;;;;;5006727;28;20237;-67
2022/10/17 03:33:36;;;;;;;3.03;1.00;;;;;;;;;;5006389;28;20318;-68
2022/10/17 03:36:06;;;;;;;0.90;0.90;;;;;;;;;;5004713;28;20300;-68
2022/10/17 03:38:33;;;;;;;1.00;1.00;;;;;;;;;;5006323;28;20213;-67
2022/10/17 03:41:01;;;;;;;1.13;1.10;;;;;;;;;;5003573;28;20228;-68
2022/10/17 03:43:29;;;;;;;1.10;1.10;;;;;;;;;;5007896;28;20220;-68
2022/10/17 03:45:57;;;;;;;0.77;0.77;;;;;;;;;;5006712;28;20243;-67
2022/10/17 03:48:24;;;;;;;3.50;1.20;;;;;;;;;;5006567;28;20669;-67
2022/10/17 03:50:51;;;;;;;0.97;0.97;;;;;;;;;;5006380;28;20234;-67
2022/10/17 03:53:19;;;;;;;1.73;1.20;;;;;;;;;;5005259;28;20565;-67
2022/10/17 03:55:46;;;;;;;3.37;1.00;;;;;;;;;;5006005;28;20220;-67
2022/10/17 03:58:14;;;;;;;1.00;1.00;;;;;;;;;;5005064;28;20204;-67
2022/10/17 04:00:41;;;;;;;1.47;1.07;;;;;;;;;;5005492;28;20205;-67
2022/10/17 04:03:08;;;;;;;1.77;0.90;;;;;;;;;;5006226;28;20279;-67
2022/10/17 04:05:38;;;;;;;2.00;1.10;;;;;;;;;;5006086;28;20226;-69
2022/10/17 04:08:05;;;;;;;1.10;1.10;;;;;;;;;;5004960;28;20225;-70
2022/10/17 04:10:32;;;;;;;2.73;0.97;;;;;;;;;;5006227;28;20205;-70
2022/10/17 04:12:59;;;;;;;4.37;1.10;;;;;;;;;;5006783;28;20209;-70
2022/10/17 04:15:28;;;;;;;1.00;1.00;;;;;;;;;;5006198;28;20216;-70
2022/10/17 04:17:55;;;;;;;7.20;1.20;;;;;;;;;;5006364;28;20205;-70
2022/10/17 04:20:22;;;;;;;1.10;1.10;;;;;;;;;;5004823;28;20587;-70
2022/10/17 04:22:49;;;;;;;2.20;1.10;;;;;;;;;;5006357;28;20212;-70
2022/10/17 04:25:16;;;;;;;0.97;0.97;;;;;;;;;;5006044;28;20255;-70
2022/10/17 04:27:43;;;;;;;1.53;1.03;;;;;;;;;;5005590;28;20232;-70
2022/10/17 04:30:10;;;;;;;1.50;1.40;;;;;;;;;;5006218;28;20973;-70
2022/10/17 04:32:39;;;;;;;6.60;1.60;;;;;;;;;;5005539;28;20352;-70
2022/10/17 04:35:06;;;;;;;1.47;0.90;;;;;;;;;;5005949;28;20223;-70
2022/10/17 04:37:33;;;;;;;3.67;1.10;;;;;;;;;;5006006;28;20205;-70
2022/10/17 04:40:00;;;;;;;2.63;0.97;;;;;;;;;;5005871;28;20216;-70
2022/10/17 04:42:29;;;;;;;5.00;0.80;;;;;;;;;;5005845;28;20236;-70
2022/10/17 04:44:56;;;;;;;1.00;1.00;;;;;;;;;;5006116;28;20216;-70
2022/10/17 04:47:23;;;;;;;4.87;0.60;;;;;;;;;;5005930;28;20691;-70
2022/10/17 04:49:51;;;;;;;0.80;0.80;;;;;;;;;;5006602;28;20201;-70
2022/10/17 04:52:18;;;;;;;1.33;1.23;;;;;;;;;;5005986;28;20218;-70
2022/10/17 04:54:45;;;;;;;1.03;1.03;;;;;;;;;;5006612;28;20631;-70
2022/10/17 04:57:12;;;;;;;6.63;1.27;;;;;;;;;;5006501;28;20579;-70
2022/10/17 04:59:39;;;;;;;0.90;0.90;;;;;;;;;;5006117;28;20201;-70
2022/10/17 05:02:06;;;;;;;1.43;1.10;;;;;;;;;;5004361;28;20205;-69
2022/10/17 05:04:33;;;;;;;0.83;0.83;;;;;;;;;;5002917;28;20229;-70
2022/10/17 05:07:02;;;;;;;1.10;1.10;;;;;;;;;;5006732;28;20221;-70
2022/10/17 05:09:29;;;;;;;1.13;1.13;;;;;;;;;;5005343;28;20217;-71
2022/10/17 05:12:00;;;;;;;1.60;0.97;;;;;;;;;;5006648;28;20204;-70
2022/10/17 05:14:27;;;;;;;1.63;1.00;;;;;;;;;;5005811;28;20231;-70
2022/10/17 05:16:54;;;;;;;3.03;1.20;;;;;;;;;;5006451;28;20259;-70
2022/10/17 05:19:21;;;;;;;1.07;1.03;;;;;;;;;;5006620;28;20581;-71
2022/10/17 05:21:48;;;;;;;2.70;1.10;;;;;;;;;;5006135;28;20209;-68
2022/10/17 05:24:17;;;;;;;3.53;1.30;;;;;;;;;;5005803;28;20205;-70
2022/10/17 05:26:44;;;;;;;2.87;0.70;;;;;;;;;;5005233;28;20613;-70
2022/10/17 05:29:11;;;;;;;0.87;0.87;;;;;;;;;;4996346;28;20255;-70
2022/10/17 05:31:38;;;;;;;4.37;0.80;;;;;;;;;;5007373;28;20296;-71
2022/10/17 05:34:05;;;;;;;0.83;0.83;;;;;;;;;;5006650;28;20200;-71
2022/10/17 05:36:32;;;;;;;2.40;1.00;;;;;;;;;;5006771;28;20209;-70
2022/10/17 05:38:59;;;;;;;4.10;1.10;;;;;;;;;;5007502;28;20213;-71
2022/10/17 05:41:27;;;;;;;1.20;1.20;;;;;;;;;;5007329;28;20208;-71
2022/10/17 05:43:54;;;;;;;7.30;0.97;;;;;;;;;;5007386;28;20213;-71
2022/10/17 05:46:23;;;;;;;2.20;1.17;;;;;;;;;;5007621;28;20204;-71
2022/10/17 05:48:50;;;;;;;1.00;1.00;;;;;;;;;;5006941;28;20668;-74
2022/10/17 05:51:17;;;;;;;1.33;0.87;;;;;;;;;;5007183;28;20201;-70
2022/10/17 05:53:44;;;;;;;1.03;1.03;;;;;;;;;;5007006;28;20205;-70
2022/10/17 05:56:13;;;;;;;2.73;0.73;;;;;;;;;;5005688;28;20217;-71
2022/10/17 05:58:44;;;;;;;1.20;1.20;;;;;;;;;;5007129;28;20197;-70
2022/10/17 06:01:12;;;;;;;2.73;1.50;;;;;;;;;;5007330;28;20252;-70
2022/10/17 06:03:39;;;;;;;2.17;1.20;;;;;;;;;;5006860;28;20232;-70
2022/10/17 06:06:07;;;;;;;1.00;1.00;;;;;;;;;;5006755;28;20255;-71
2022/10/17 06:08:34;;;;;;;2.00;1.10;;;;;;;;;;5007173;28;20763;-70
2022/10/17 06:11:02;;;;;;;4.03;1.57;;;;;;;;;;5007176;28;20224;-70
2022/10/17 06:13:29;;;;;;;1.10;1.10;;;;;;;;;;5006934;28;20216;-71
2022/10/17 06:15:58;;;;;;;6.33;1.57;;;;;;;;;;5007217;28;20623;-70
2022/10/17 06:18:25;;;;;;;1.10;1.00;;;;;;;;;;5009672;28;20205;-70
2022/10/17 06:20:52;;;;;;;1.30;1.20;;;;;;;;;;5010550;28;20209;-70
2022/10/17 06:23:19;;;;;;;4.07;1.07;;;;;;;;;;5010750;28;20224;-70
2022/10/17 06:25:46;;;;;;;2.93;1.30;;;;;;;;;;5010459;28;20208;-70
2022/10/17 06:28:13;;;;;;;3.60;1.20;;;;;;;;;;5010021;28;20236;-70
2022/10/17 06:30:40;;;;;;;1.43;1.10;;;;;;;;;;5010562;28;20221;-70
2022/10/17 06:33:09;;;;;;;2.50;1.43;;;;;;;;;;5010216;28;20213;-70
2022/10/17 06:35:36;;;;;;;1.23;1.00;;;;;;;;;;5010372;28;20217;-70
2022/10/17 06:38:04;;;;;;;1.23;1.20;;;;;;;;;;5010175;28;20578;-69
2022/10/17 06:40:31;;;;;;;1.70;1.23;;;;;;;;;;5010013;28;20592;-70
2022/10/17 06:42:58;;;;;;;4.53;1.10;;;;;;;;;;5010023;28;20235;-70
2022/10/17 06:45:25;;;;;;;1.00;1.00;;;;;;;;;;5009847;28;20213;-70
2022/10/17 06:47:52;;;;;;;1.43;0.87;;;;;;;;;;5010300;28;20683;-70
2022/10/17 06:50:21;;;;;;;7.07;1.23;;;;;;;;;;5004220;28;20209;-70
2022/10/17 06:52:51;;;;;;;2.67;1.00;;;;;;;;;;5007439;28;20207;-69
2022/10/17 06:55:18;;;;;;;1.50;1.40;;;;;;;;;;4998730;28;20201;-69
2022/10/17 06:57:45;;;;;;;1.23;0.93;;;;;;;;;;5000356;28;20209;-69
2022/10/17 07:00:13;;;;;;;2.30;1.10;;;;;;;;;;4993121;28;20217;-69
2022/10/17 07:02:42;;;;;;;1.30;1.20;;;;;;;;;;4998939;28;20205;-70
2022/10/17 07:05:10;;;;;;;4.53;1.00;;;;;;;;;;5010245;28;20212;-70
2022/10/17 07:07:38;;;;;;;3.03;1.23;;;;;;;;;;5010300;28;20251;-70
2022/10/17 07:10:07;;;;;;;6.17;1.20;;;;;;;;;;5010271;28;20220;-68
2022/10/17 07:12:34;;;;;;;1.00;1.00;;;;;;;;;;5009930;28;20291;-69
2022/10/17 07:15:03;;;;;;;2.80;0.97;;;;;;;;;;5009772;28;20237;-69
2022/10/17 07:17:30;;;;;;;1.03;1.03;;;;;;;;;;5009704;28;20304;-69
2022/10/17 07:19:57;;;;;;;4.43;1.40;;;;;;;;;;5009676;28;20675;-69
2022/10/17 07:22:24;;;;;;;1.43;1.23;;;;;;;;;;5009681;28;20579;-69
2022/10/17 07:24:52;;;;;;;9.30;1.40;;;;;;;;;;5009684;28;20213;-69
2022/10/17 07:27:19;;;;;;;1.70;1.60;;;;;;;;;;5009426;28;20245;-70
2022/10/17 07:29:46;;;;;;;1.63;1.50;;;;;;;;;;5008432;28;20209;-69
2022/10/17 07:32:14;;;;;;;8.10;1.30;;;;;;;;;;5009480;28;20205;-71
2022/10/17 07:34:41;;;;;;;1.60;1.50;;;;;;;;;;5009436;28;20306;-70
2022/10/17 07:37:08;;;;;;;5.67;1.57;;;;;;;;;;5009656;28;20220;-70
2022/10/17 07:39:35;;;;;;;3.47;1.60;;;;;;;;;;5009439;28;20221;-70
2022/10/17 07:42:06;;;;;;;2.67;1.80;;;;;;;;;;5009464;28;20232;-70
2022/10/17 07:44:34;;;;;;;2.13;1.90;;;;;;;;;;5009385;28;20259;-70
2022/10/17 07:47:01;;;;;;;1.83;1.73;;;;;;;;;;5009255;28;20241;-70
2022/10/17 07:49:28;;;;;;;2.80;2.10;;;;;;;;;;5008983;28;20236;-70
2022/10/17 07:51:56;;;;;;;5.17;2.60;;;;;;;;;;5009268;28;20707;-71
2022/10/17 07:54:23;;;;;;;3.57;2.03;;;;;;;;;;5008913;28;20221;-70
2022/10/17 07:56:50;;;;;;;2.67;2.43;;;;;;;;;;5008667;28;20213;-68
2022/10/17 07:59:18;;;;;;;2.63;2.53;;;;;;;;;;5008127;28;20205;-69
2022/10/17 08:01:46;;;;;;;3.27;2.70;;;;;;;;;;5008396;28;20224;-70
2022/10/17 08:04:13;;;;;;;2.78;2.67;;;;;;;;;;5008467;28;20233;-69
2022/10/17 08:06:40;;;;;;;2.40;2.30;;;;;;;;;;5008375;28;20215;-65
2022/10/17 08:09:07;;;;;;;2.45;2.35;;;;;;;;;;5008570;28;20237;-71
2022/10/17 08:11:35;;;;;;;2.90;2.70;;;;;;;;;;5008249;28;20877;-72
2022/10/17 08:14:02;;;;;;;3.25;2.60;;;;;;;;;;5007995;28;20316;-71
2022/10/17 08:16:30;;;;;;;2.75;2.65;;;;;;;;;;5007775;28;20213;-72
2022/10/17 08:18:57;;;;;;;2.90;2.70;;;;;;;;;;5007489;28;20213;-62
2022/10/17 08:21:24;;;;;;;2.28;2.00;;;;;;;;;;5007773;28;20209;-63
2022/10/17 08:23:52;;;;;;;3.75;2.55;;;;;;;;;;5007915;28;20217;-66
2022/10/17 08:26:19;;;;;;;2.78;2.63;;;;;;;;;;5007273;28;20209;-65
2022/10/17 08:28:46;;;;;;;2.40;2.30;;;;;;;;;;5007079;28;20237;-70
2022/10/17 08:31:17;;;;;;;2.70;2.60;;;;;;;;;;5007679;28;20213;-70
2022/10/17 08:33:45;;;;;;;2.47;2.20;;;;;;;;;;5007680;28;20236;-67
2022/10/17 08:36:13;;;;;;;2.95;2.17;;;;;;;;;;5008085;28;20212;-68
2022/10/17 08:38:42;;;;;;;8.73;2.55;;;;;;;;;;5007785;28;20213;-66
2022/10/17 08:41:13;;;;;;;2.00;1.85;;;;;;;;;;5007246;28;20683;-66
2022/10/17 08:44:01;;;;;;;2.05;2.00;;;;;;;;;;5008240;28;20212;-66
2022/10/17 08:46:30;;;;;;;2.30;2.10;;;;;;;;;;4999499;28;20219;-67
2022/10/17 08:48:59;;;;;;;2.83;2.42;;;;;;;;;;5007092;28;20221;-67
2022/10/17 08:51:28;;;;;;;2.20;2.10;;;;;;;;;;5007708;28;20220;-68
2022/10/17 08:53:57;;;;;;;2.20;2.10;;;;;;;;;;5007726;28;20741;-68
2022/10/17 08:56:25;;;;;;;2.38;2.30;;;;;;;;;;5007611;28;20300;-69
2022/10/17 08:58:52;;;;;;;2.63;2.33;;;;;;;;;;5007561;28;20225;-68
2022/10/17 09:01:30;;;;;;;4.40;2.63;;;;;;;;;;5007464;28;20205;-68
2022/10/17 09:04:03;;;;;;;2.65;2.50;;;;;;;;;;5007142;28;20657;-68
2022/10/17 09:06:33;;;;;;;2.63;2.45;;;;;;;;;;5007415;28;20208;-68
2022/10/17 09:09:09;;;;;;;2.38;2.10;;;;;;;;;;5007240;28;20259;-69
2022/10/17 09:11:49;;;;;;;2.38;2.28;;;;;;;;;;5008026;28;20209;-69
2022/10/17 09:14:28;;;;;;;2.72;2.45;;;;;;;;;;5008133;28;20216;-69
2022/10/17 09:17:07;;;;;;;2.58;2.40;;;;;;;;;;5008121;28;20220;-69
2022/10/17 09:19:37;;;;;;;1.88;1.85;;;;;;;;;;5007880;28;20204;-69
2022/10/17 09:22:07;;;;;;;2.03;1.92;;;;;;;;;;5008150;28;20220;-69
2022/10/17 09:24:37;;;;;;;3.58;2.88;;;;;;;;;;5007925;28;20208;-69
2022/10/17 09:27:06;;;;;;;2.50;2.40;;;;;;;;;;5007871;28;20248;-67
2022/10/17 09:29:33;;;;;;;2.55;2.25;;;;;;;;;;5008012;28;20228;-68
2022/10/17 09:32:03;;;;;;;1.80;1.70;;;;;;;;;;5004937;28;21009;-68
2022/10/17 09:34:31;;;;;;;2.20;2.10;;;;;;;;;;5006872;28;20217;-67
2022/10/17 09:37:01;;;;;;;1.98;1.88;;;;;;;;;;5007821;28;20676;-62
2022/10/17 09:39:30;;;;;;;2.45;1.95;;;;;;;;;;5007613;28;20214;-70
2022/10/17 09:41:58;;;;;;;2.00;1.88;;;;;;;;;;5007383;28;20208;-69
2022/10/17 09:44:26;;;;;;;1.95;1.85;;;;;;;;;;5003152;28;20205;-70
2022/10/17 09:47:02;;;;;;;1.90;1.80;;;;;;;;;;5006225;28;20205;-70
2022/10/17 09:49:33;;;;;;;2.22;1.70;;;;;;;;;;5009793;28;20235;-72
2022/10/17 09:52:02;;;;;;;3.45;2.13;;;;;;;;;;5012672;28;20211;-71
2022/10/17 09:54:34;;;;;;;1.45;1.45;;;;;;;;;;5022430;28;20217;-70
2022/10/17 09:57:02;;;;;;;4.18;1.70;;;;;;;;;;5025934;28;20211;-71
2022/10/17 09:59:34;;;;;;;2.63;2.05;;;;;;;;;;5022675;28;20205;-70
2022/10/17 10:02:15;;;;;;;4.63;1.50;;;;;;;;;;5030053;28;20212;-71
2022/10/17 10:04:52;;;;;;;4.15;1.75;;;;;;;;;;5019399;28;20266;-71
2022/10/17 10:07:21;;;;;;;4.35;1.90;;;;;;;;;;5029865;28;20215;-71
2022/10/17 10:09:49;;;;;;;2.15;1.98;;;;;;;;;;5025775;28;20225;-71
2022/10/17 10:12:18;;;;;;;3.00;2.00;;;;;;;;;;5028396;28;20251;-71
2022/10/17 10:14:45;;;;;;;1.70;1.70;;;;;;;;;;5013765;28;20208;-71
2022/10/17 10:17:26;;;;;;;2.70;2.47;;;;;;;;;;5023736;28;20236;-70
2022/10/17 10:19:53;;;;;;;2.10;2.00;;;;;;;;;;5015508;28;20209;-71
2022/10/17 10:22:23;;;;;;;2.08;1.33;;;;;;;;;;5015835;28;20212;-71
2022/10/17 10:25:07;;;;;;;6.22;1.98;;;;;;;;;;5010337;28;20236;-71
2022/10/17 10:27:34;;;;;;;2.30;2.20;;;;;;;;;;5026291;28;20243;-71
2022/10/17 10:30:01;;;;;;;1.92;1.83;;;;;;;;;;5017551;28;20236;-71
2022/10/17 10:32:29;;;;;;;2.00;1.90;;;;;;;;;;5010678;28;20683;-71
2022/10/17 10:34:58;;;;;;;1.48;1.48;;;;;;;;;;5010399;28;20204;-71
2022/10/17 10:37:27;;;;;;;2.08;1.98;;;;;;;;;;5014566;28;20205;-70
2022/10/17 10:39:55;;;;;;;1.65;1.55;;;;;;;;;;5017631;28;20664;-71
2022/10/17 10:42:25;;;;;;;1.90;1.60;;;;;;;;;;5010247;28;20209;-72
2022/10/17 10:44:53;;;;;;;1.40;1.38;;;;;;;;;;5015312;28;20203;-66
2022/10/17 10:47:21;;;;;;;1.80;1.70;;;;;;;;;;5011973;28;20213;-71
2022/10/17 10:49:48;;;;;;;2.17;1.70;;;;;;;;;;5009557;28;20221;-71
2022/10/17 10:52:24;;;;;;;1.52;1.42;;;;;;;;;;4999803;28;20231;-68
2022/10/17 10:54:55;;;;;;;2.95;1.75;;;;;;;;;;5019287;28;20213;-65
2022/10/17 10:57:25;;;;;;;1.70;1.63;;;;;;;;;;5016521;28;20197;-66
2022/10/17 10:59:57;;;;;;;3.70;1.52;;;;;;;;;;5015033;28;20205;-66
2022/10/17 11:02:26;;;;;;;2.00;1.90;;;;;;;;;;5014672;28;20315;-67
2022/10/17 11:04:56;;;;;;;1.60;1.50;;;;;;;;;;5012560;28;20240;-68
2022/10/17 11:07:25;;;;;;;3.70;1.60;;;;;;;;;;5010027;28;20209;-68
2022/10/17 11:09:56;;;;;;;1.73;1.63;;;;;;;;;;5009181;28;20641;-68
2022/10/17 11:12:25;;;;;;;1.60;1.50;;;;;;;;;;5009913;28;20866;-66
2022/10/17 11:14:56;;;;;;;1.33;1.33;;;;;;;;;;5009476;28;20212;-68
2022/10/17 11:17:28;;;;;;;3.30;1.52;;;;;;;;;;5005290;28;20204;-66
2022/10/17 11:20:00;;;;;;;1.50;1.38;;;;;;;;;;5004167;28;20272;-64
2022/10/17 11:22:28;;;;;;;1.30;1.30;;;;;;;;;;5007435;28;20220;-67
2022/10/17 11:24:59;;;;;;;1.40;1.30;;;;;;;;;;5009444;28;20205;-67
2022/10/17 11:27:30;;;;;;;9.02;1.73;;;;;;;;;;5009574;28;20712;-67
2022/10/17 11:29:58;;;;;;;2.03;1.60;;;;;;;;;;5007649;28;20743;-67
2022/10/17 11:32:29;;;;;;;2.03;1.63;;;;;;;;;;5008921;28;20205;-67
2022/10/17 11:35:00;;;;;;;1.60;1.50;;;;;;;;;;5008384;28;20220;-67
2022/10/17 11:37:30;;;;;;;1.80;1.70;;;;;;;;;;5008508;28;20240;-66
2022/10/17 11:40:01;;;;;;;1.20;1.20;;;;;;;;;;5008450;28;20212;-67
2022/10/17 11:42:30;;;;;;;2.38;1.50;;;;;;;;;;5008192;28;20240;-67
2022/10/17 11:45:00;;;;;;;1.40;1.40;;;;;;;;;;5007949;28;20212;-67
2022/10/17 11:47:33;;;;;;;1.25;1.25;;;;;;;;;;5008513;28;20233;-67
2022/10/17 11:50:03;;;;;;;1.75;1.65;;;;;;;;;;5007948;28;20442;-67
2022/10/17 11:52:34;;;;;;;1.98;1.42;;;;;;;;;;5008543;28;20247;-70
2022/10/17 11:55:07;;;;;;;1.65;1.10;;;;;;;;;;5008032;28;20208;-72
2022/10/17 11:57:38;;;;;;;2.08;1.45;;;;;;;;;;5007966;28;20197;-72
2022/10/17 12:00:12;;;;;;;1.75;1.58;;;;;;;;;;4988640;28;20571;-72
2022/10/17 12:02:44;;;;;;;2.25;1.50;;;;;;;;;;5006298;28;20220;-72
2022/10/17 12:05:19;;;;;;;1.15;1.15;;;;;;;;;;5008577;28;20672;-72
2022/10/17 12:07:48;;;;;;;2.88;1.50;;;;;;;;;;5009084;28;20212;-72
2022/10/17 12:10:25;;;;;;;3.60;1.17;;;;;;;;;;5008677;28;20945;-71
2022/10/17 12:12:52;;;;;;;1.17;1.17;;;;;;;;;;5009070;28;20236;-71
2022/10/17 12:15:29;;;;;;;2.47;1.50;;;;;;;;;;5008358;28;20235;-72
2022/10/17 12:17:59;;;;;;;2.00;1.55;;;;;;;;;;5008688;28;20581;-71
2022/10/17 12:20:31;;;;;;;2.22;1.48;;;;;;;;;;5008456;28;20205;-72
2022/10/17 12:23:01;;;;;;;1.25;1.25;;;;;;;;;;5008919;28;20231;-72
2022/10/17 12:25:32;;;;;;;1.35;1.25;;;;;;;;;;5008283;28;20223;-72
2022/10/17 12:28:20;;;;;;;1.67;1.58;;;;;;;;;;5008581;28;20267;-72
2022/10/17 12:30:51;;;;;;;2.33;1.30;;;;;;;;;;5005090;28;20239;-72
2022/10/17 12:33:21;;;;;;;1.38;1.27;;;;;;;;;;5008370;28;20221;-72
2022/10/17 12:35:49;;;;;;;3.05;1.40;;;;;;;;;;5008279;28;20252;-72
2022/10/17 12:38:30;;;;;;;2.70;2.00;;;;;;;;;;5008076;28;20799;-72
2022/10/17 12:41:00;;;;;;;3.40;1.70;;;;;;;;;;5002530;28;20231;-71
2022/10/17 12:43:47;;;;;;;2.53;1.25;;;;;;;;;;5005318;28;20679;-71
2022/10/17 12:46:34;;;;;;;1.08;1.08;;;;;;;;;;5002805;28;20211;-71
2022/10/17 12:49:04;;;;;;;2.70;1.70;;;;;;;;;;4988446;28;20221;-71
2022/10/17 12:51:51;;;;;;;2.30;1.42;;;;;;;;;;5007323;28;20216;-71
2022/10/17 12:54:20;;;;;;;1.50;1.40;;;;;;;;;;5006990;28;20209;-71
2022/10/17 12:56:48;;;;;;;1.35;1.35;;;;;;;;;;5007870;28;20212;-72
2022/10/17 12:59:17;;;;;;;1.58;1.50;;;;;;;;;;5008032;28;20212;-72
2022/10/17 13:01:46;;;;;;;3.50;1.50;;;;;;;;;;5007166;28;20679;-73
2022/10/17 13:04:13;;;;;;;4.22;1.50;;;;;;;;;;5008009;28;20715;-71
2022/10/17 13:06:44;;;;;;;1.38;1.30;;;;;;;;;;5006833;28;20204;-71
2022/10/17 13:09:18;;;;;;;1.50;1.50;;;;;;;;;;5007790;28;20227;-71
2022/10/17 13:11:49;;;;;;;2.10;1.27;;;;;;;;;;5008322;28;20243;-71
2022/10/17 13:14:19;;;;;;;8.82;1.45;;;;;;;;;;5008780;28;20286;-71
2022/10/17 13:16:52;;;;;;;1.10;1.10;;;;;;;;;;5019672;28;20227;-71
2022/10/17 13:19:22;;;;;;;1.52;1.17;;;;;;;;;;5008775;28;20208;-72
2022/10/17 13:21:54;;;;;;;1.40;0.95;;;;;;;;;;5010237;28;20205;-73
2022/10/17 13:24:22;;;;;;;1.95;1.00;;;;;;;;;;5010845;28;20205;-73
2022/10/17 13:26:50;;;;;;;1.15;1.08;;;;;;;;;;5007244;28;20267;-65
2022/10/17 13:29:19;;;;;;;2.90;1.38;;;;;;;;;;5010997;28;20216;-67
2022/10/17 13:31:51;;;;;;;1.40;1.30;;;;;;;;;;5015089;28;20705;-66
2022/10/17 13:34:19;;;;;;;1.95;1.17;;;;;;;;;;5010719;28;20204;-67
2022/10/17 13:36:48;;;;;;;1.00;1.00;;;;;;;;;;5012045;28;20270;-67
2022/10/17 13:39:17;;;;;;;1.58;1.23;;;;;;;;;;5009576;28;20573;-66
2022/10/17 13:41:44;;;;;;;1.20;1.20;;;;;;;;;;5013566;28;20853;-73
2022/10/17 13:44:14;;;;;;;1.27;1.27;;;;;;;;;;5011783;28;20683;-71
2022/10/17 13:46:41;;;;;;;1.08;1.08;;;;;;;;;;5019907;28;20232;-72
2022/10/17 13:49:27;;;;;;;0.80;0.80;;;;;;;;;;5016431;28;20573;-72
2022/10/17 13:51:54;;;;;;;1.40;1.10;;;;;;;;;;5031647;28;20226;-72
2022/10/17 13:54:35;;;;;;;4.03;1.15;;;;;;;;;;5031498;28;20231;-71
2022/10/17 13:57:03;;;;;;;1.73;1.17;;;;;;;;;;5031491;28;20219;-71
2022/10/17 13:59:34;;;;;;;1.10;1.10;;;;;;;;;;5016175;28;20275;-72
2022/10/17 14:02:01;;;;;;;2.30;1.23;;;;;;;;;;5031371;28;20686;-71
2022/10/17 14:04:30;;;;;;;1.13;1.10;;;;;;;;;;5021475;28;20225;-73
2022/10/17 14:06:57;;;;;;;2.05;1.20;;;;;;;;;;5011318;28;20724;-72
2022/10/17 14:09:26;;;;;;;1.17;1.10;;;;;;;;;;5012131;28;20216;-72
2022/10/17 14:12:03;;;;;;;4.00;1.20;;;;;;;;;;5006746;28;20224;-69
2022/10/17 14:14:33;;;;;;;1.10;1.10;;;;;;;;;;4992483;28;20201;-68
2022/10/17 14:17:03;;;;;;;1.45;0.98;;;;;;;;;;5008127;28;20209;-68
2022/10/17 14:19:32;;;;;;;1.27;0.95;;;;;;;;;;5010360;28;20699;-67
2022/10/17 14:22:16;;;;;;;1.42;1.33;;;;;;;;;;5009823;28;20586;-69
2022/10/17 14:24:43;;;;;;;1.10;1.10;;;;;;;;;;5010592;28;20278;-67
2022/10/17 14:27:25;;;;;;;1.42;1.33;;;;;;;;;;5010071;28;20237;-68
2022/10/17 14:29:56;;;;;;;3.97;1.30;;;;;;;;;;5009743;28;20746;-68
2022/10/17 14:32:23;;;;;;;1.40;1.40;;;;;;;;;;5009957;28;20205;-68
2022/10/17 14:34:53;;;;;;;1.25;1.20;;;;;;;;;;5010184;28;20224;-67
2022/10/17 14:37:27;;;;;;;1.13;1.13;;;;;;;;;;5010050;28;20212;-67
2022/10/17 14:39:54;;;;;;;1.08;1.02;;;;;;;;;;5010332;28;20238;-68
2022/10/17 14:42:24;;;;;;;1.13;1.13;;;;;;;;;;5009249;28;20204;-67
2022/10/17 14:44:52;;;;;;;2.42;1.05;;;;;;;;;;5010330;28;20213;-67
2022/10/17 14:47:21;;;;;;;2.55;1.42;;;;;;;;;;5009929;28;20236;-68
2022/10/17 14:49:50;;;;;;;1.15;1.13;;;;;;;;;;5009649;28;20225;-67
2022/10/17 14:52:31;;;;;;;1.20;1.20;;;;;;;;;;5009385;28;20209;-67
2022/10/17 14:54:58;;;;;;;1.50;1.40;;;;;;;;;;5006793;28;20223;-67
2022/10/17 14:57:27;;;;;;;1.30;1.20;;;;;;;;;;5009844;28;20216;-67